createdAt,value
2018-11-27T00:00:34.360Z,28.20
2018-11-27T00:03:06.509Z,27.13
2018-11-27T00:05:35.812Z,28.57
2018-11-27T00:08:04.224Z,25.67
2018-11-27T00:10:34.094Z,28.67
2018-11-27T00:13:02.424Z,28.00
2018-11-27T00:15:31.387Z,30.93
2018-11-27T00:17:59.787Z,27.67
2018-11-27T00:20:28.427Z,29.63
2018-11-27T00:22:56.782Z,28.70
2018-11-27T00:25:25.110Z,28.57
2018-11-27T00:27:53.451Z,29.07
2018-11-27T00:30:22.442Z,30.30
2018-11-27T00:32:50.785Z,29.23
2018-11-27T00:35:20.268Z,28.30
2018-11-27T00:37:48.802Z,29.37
2018-11-27T00:40:19.945Z,29.90
2018-11-27T00:42:48.279Z,29.10
2018-11-27T00:45:17.738Z,29.17
2018-11-27T00:47:47.035Z,30.20
2018-11-27T00:50:16.317Z,31.50
2018-11-27T00:52:44.678Z,27.90
2018-11-27T00:55:13.961Z,28.90
2018-11-27T00:57:43.053Z,28.97
2018-11-27T01:00:15.387Z,28.83
2018-11-27T01:02:44.079Z,26.53
2018-11-27T01:05:14.405Z,27.43
2018-11-27T01:07:43.189Z,29.97
2018-11-27T01:10:18.814Z,31.03
2018-11-27T01:12:47.219Z,27.80
2018-11-27T01:15:15.855Z,28.37
2018-11-27T01:17:47.411Z,29.03
2018-11-27T01:20:16.743Z,29.40
2018-11-27T01:22:45.030Z,28.13
2018-11-27T01:25:13.499Z,26.30
2018-11-27T01:27:42.024Z,28.23
2018-11-27T01:30:14.092Z,29.07
2018-11-27T01:32:42.813Z,27.47
2018-11-27T01:35:14.070Z,29.10
2018-11-27T01:37:42.677Z,30.10
2018-11-27T01:40:13.970Z,27.57
2018-11-27T01:42:42.257Z,27.10
2018-11-27T01:45:12.521Z,27.00
2018-11-27T01:47:40.862Z,27.00
2018-11-27T01:50:10.605Z,28.97
2018-11-27T01:52:38.954Z,28.27
2018-11-27T01:55:09.717Z,26.77
2018-11-27T01:57:38.043Z,30.43
2018-11-27T02:00:16.530Z,29.53
2018-11-27T02:02:44.916Z,31.57
2018-11-27T02:05:13.534Z,27.87
2018-11-27T02:07:41.847Z,30.33
2018-11-27T02:10:11.356Z,28.73
2018-11-27T02:12:40.327Z,26.93
2018-11-27T02:15:12.580Z,30.00
2018-11-27T02:17:40.888Z,28.60
2018-11-27T02:20:11.198Z,28.20
2018-11-27T02:22:39.790Z,29.53
2018-11-27T02:25:16.122Z,30.80
2018-11-27T02:27:44.448Z,32.73
2018-11-27T02:30:14.710Z,29.90
2018-11-27T02:32:43.581Z,29.93
2018-11-27T02:35:13.199Z,31.60
2018-11-27T02:37:41.498Z,29.43
2018-11-27T02:40:11.271Z,32.13
2018-11-27T02:42:39.924Z,32.70
2018-11-27T02:45:10.062Z,32.73
2018-11-27T02:47:38.727Z,30.73
2018-11-27T02:50:09.159Z,33.40
2018-11-27T02:52:37.475Z,36.23
2018-11-27T02:58:03.149Z,35.50
2018-11-27T03:00:31.469Z,31.93
2018-11-27T03:03:00.755Z,32.30
2018-11-27T03:05:31.001Z,34.37
2018-11-27T03:07:59.306Z,36.50
2018-11-27T03:10:27.650Z,35.97
2018-11-27T03:12:56.122Z,34.87
2018-11-27T03:15:24.400Z,35.77
2018-11-27T03:17:52.746Z,35.20
2018-11-27T03:20:21.130Z,35.97
2018-11-27T03:22:49.430Z,35.87
2018-11-27T03:25:20.369Z,36.53
2018-11-27T03:27:50.820Z,33.57
2018-11-27T03:30:21.111Z,34.67
2018-11-27T03:32:49.459Z,33.63
2018-11-27T03:35:19.487Z,31.63
2018-11-27T03:37:47.986Z,34.67
2018-11-27T03:40:26.794Z,32.10
2018-11-27T03:42:55.119Z,33.17
2018-11-27T03:45:24.238Z,33.57
2018-11-27T03:47:52.627Z,36.03
2018-11-27T03:50:25.790Z,35.20
2018-11-27T03:52:54.308Z,32.17
2018-11-27T03:55:22.736Z,32.03
2018-11-27T03:57:51.110Z,36.00
2018-11-27T04:00:21.325Z,31.13
2018-11-27T04:02:53.059Z,33.60
2018-11-27T04:05:21.706Z,30.87
2018-11-27T04:07:50.013Z,32.03
2018-11-27T04:10:19.263Z,33.83
2018-11-27T04:12:47.592Z,34.23
2018-11-27T04:15:16.615Z,33.67
2018-11-27T04:17:45.275Z,33.40
2018-11-27T04:20:14.107Z,30.10
2018-11-27T04:22:43.283Z,34.77
2018-11-27T04:25:13.242Z,32.10
2018-11-27T04:27:41.902Z,33.37
2018-11-27T04:30:13.103Z,32.43
2018-11-27T04:32:41.972Z,30.00
2018-11-27T04:35:12.059Z,31.27
2018-11-27T04:37:40.575Z,30.93
2018-11-27T04:40:10.374Z,31.20
2018-11-27T04:42:38.884Z,27.80
2018-11-27T04:45:09.912Z,30.17
2018-11-27T04:47:38.551Z,26.47
2018-11-27T04:50:09.133Z,28.73
2018-11-27T04:52:37.505Z,30.10
2018-11-27T04:55:07.007Z,27.33
2018-11-27T04:57:35.456Z,30.53
2018-11-27T05:00:04.302Z,29.47
2018-11-27T05:02:32.576Z,28.43
2018-11-27T05:05:00.879Z,29.73
2018-11-27T05:07:29.201Z,30.40
2018-11-27T05:09:57.561Z,29.20
2018-11-27T05:12:25.858Z,28.27
2018-11-27T05:14:55.879Z,27.27
2018-11-27T05:17:24.258Z,29.33
2018-11-27T05:19:52.734Z,28.13
2018-11-27T05:22:21.123Z,29.30
2018-11-27T05:24:50.478Z,32.33
2018-11-27T05:27:18.778Z,27.70
2018-11-27T05:29:47.109Z,27.23
2018-11-27T05:32:15.437Z,29.67
2018-11-27T05:34:43.818Z,29.77
2018-11-27T05:37:12.184Z,28.90
2018-11-27T05:39:40.480Z,29.80
2018-11-27T05:42:08.869Z,30.90
2018-11-27T05:44:37.357Z,28.97
2018-11-27T05:47:06.530Z,30.27
2018-11-27T05:49:34.859Z,26.20
2018-11-27T05:52:03.202Z,29.20
2018-11-27T05:54:31.498Z,29.77
2018-11-27T05:56:59.844Z,28.13
2018-11-27T05:59:28.162Z,29.10
2018-11-27T06:01:56.731Z,30.33
2018-11-27T06:04:25.057Z,30.27
2018-11-27T06:06:53.329Z,30.07
2018-11-27T06:09:21.646Z,29.00
2018-11-27T06:11:49.942Z,29.57
2018-11-27T06:14:18.244Z,29.70
2018-11-27T06:16:46.511Z,28.63
2018-11-27T06:19:14.809Z,30.93
2018-11-27T06:21:43.071Z,35.77
2018-11-27T06:24:11.391Z,31.50
2018-11-27T06:26:40.033Z,30.07
2018-11-27T06:29:08.430Z,32.67
2018-11-27T06:31:37.378Z,31.07
2018-11-27T06:34:06.614Z,30.30
2018-11-27T06:36:35.092Z,35.43
2018-11-27T06:39:03.587Z,29.87
2018-11-27T06:41:32.118Z,30.27
2018-11-27T06:44:00.443Z,29.73
2018-11-27T06:46:28.784Z,30.13
2018-11-27T06:48:57.279Z,35.67
2018-11-27T06:51:25.629Z,29.73
2018-11-27T06:54:00.754Z,30.60
2018-11-27T06:56:29.082Z,31.23
2018-11-27T06:58:57.460Z,32.40
2018-11-27T07:01:25.934Z,32.10
2018-11-27T07:03:54.459Z,32.90
2018-11-27T07:06:22.851Z,31.50
2018-11-27T07:08:51.258Z,32.27
2018-11-27T07:11:19.570Z,33.30
2018-11-27T07:13:49.058Z,32.70
2018-11-27T07:16:17.366Z,30.67
2018-11-27T07:18:45.726Z,32.13
2018-11-27T07:21:14.043Z,32.67
2018-11-27T07:23:42.455Z,33.00
2018-11-27T07:26:10.743Z,31.17
2018-11-27T07:28:39.053Z,33.17
2018-11-27T07:31:07.454Z,28.50
2018-11-27T07:33:35.745Z,30.03
2018-11-27T07:36:04.464Z,30.60
2018-11-27T07:38:32.824Z,30.27
2018-11-27T07:41:01.144Z,31.20
2018-11-27T07:43:29.479Z,30.37
2018-11-27T07:45:57.827Z,28.37
2018-11-27T07:48:26.120Z,32.10
2018-11-27T07:50:54.444Z,29.60
2018-11-27T07:53:22.770Z,31.00
2018-11-27T07:55:51.094Z,30.90
2018-11-27T07:58:19.434Z,31.43
2018-11-27T08:00:48.131Z,30.70
2018-11-27T08:03:16.433Z,31.73
2018-11-27T08:05:44.707Z,32.70
2018-11-27T08:08:14.566Z,30.27
2018-11-27T08:10:44.129Z,31.47
2018-11-27T08:13:12.557Z,30.33
2018-11-27T08:15:40.900Z,29.83
2018-11-27T08:18:09.905Z,34.17
2018-11-27T08:20:38.259Z,35.70
2018-11-27T08:23:07.738Z,35.03
2018-11-27T08:25:36.065Z,30.47
2018-11-27T08:28:04.976Z,30.93
2018-11-27T08:30:33.327Z,30.37
2018-11-27T08:33:01.759Z,31.93
2018-11-27T08:35:30.689Z,32.23
2018-11-27T08:38:00.063Z,30.47
2018-11-27T08:40:29.714Z,32.33
2018-11-27T08:42:58.105Z,32.63
2018-11-27T08:45:26.717Z,29.07
2018-11-27T08:47:55.727Z,32.73
2018-11-27T08:50:26.954Z,31.93
2018-11-27T08:53:03.441Z,29.87
2018-11-27T08:55:40.986Z,34.43
2018-11-27T08:58:15.014Z,31.00
2018-11-27T09:00:43.341Z,27.83
2018-11-27T09:03:11.701Z,31.23
2018-11-27T09:05:40.745Z,31.23
2018-11-27T09:08:09.473Z,32.80
2018-11-27T09:10:37.844Z,29.43
2018-11-27T09:13:06.827Z,30.57
2018-11-27T09:15:35.732Z,33.97
2018-11-27T09:18:35.705Z,31.10
2018-11-27T09:21:04.067Z,31.03
2018-11-27T09:23:32.429Z,33.47
2018-11-27T09:26:00.756Z,31.27
2018-11-27T09:28:29.252Z,29.67
2018-11-27T09:30:57.586Z,27.67
2018-11-27T09:33:25.972Z,37.20
2018-11-27T09:35:54.360Z,31.97
2018-11-27T09:38:22.763Z,33.10
2018-11-27T09:40:51.116Z,30.30
2018-11-27T09:43:19.479Z,31.83
2018-11-27T09:45:48.691Z,32.47
2018-11-27T09:48:17.083Z,30.53
2018-11-27T09:50:45.451Z,31.00
2018-11-27T09:53:14.920Z,29.83
2018-11-27T09:55:43.558Z,29.23
2018-11-27T09:58:11.880Z,30.77
2018-11-27T10:00:40.830Z,29.70
2018-11-27T10:03:11.002Z,30.43
2018-11-27T10:05:39.266Z,29.40
2018-11-27T10:08:08.220Z,26.47
2018-11-27T10:10:36.515Z,28.70
2018-11-27T10:13:04.949Z,29.03
2018-11-27T10:15:33.349Z,28.90
2018-11-27T10:18:02.316Z,30.20
2018-11-27T10:20:34.011Z,27.63
2018-11-27T10:23:02.352Z,30.93
2018-11-27T10:25:30.727Z,27.30
2018-11-27T10:27:59.109Z,27.03
2018-11-27T10:30:27.985Z,29.97
2018-11-27T10:32:58.399Z,28.50
2018-11-27T10:35:28.160Z,28.00
2018-11-27T10:37:56.481Z,29.23
2018-11-27T10:40:24.795Z,30.20
2018-11-27T10:42:53.193Z,29.13
2018-11-27T10:45:22.302Z,26.90
2018-11-27T10:47:53.055Z,28.13
2018-11-27T10:50:21.429Z,30.47
2018-11-27T10:52:51.872Z,28.47
2018-11-27T10:55:20.657Z,29.60
2018-11-27T10:57:48.992Z,31.20
2018-11-27T11:00:26.131Z,28.63
2018-11-27T11:03:00.002Z,28.17
2018-11-27T11:05:30.302Z,29.00
2018-11-27T11:07:59.259Z,28.27
2018-11-27T11:10:27.596Z,30.90
2018-11-27T11:12:55.899Z,27.80
2018-11-27T11:15:24.217Z,30.60
2018-11-27T11:17:52.601Z,26.90
2018-11-27T11:20:21.853Z,28.90
2018-11-27T11:22:50.149Z,29.37
2018-11-27T11:25:21.784Z,26.97
2018-11-27T11:27:53.560Z,25.90
2018-11-27T11:30:22.292Z,31.10
2018-11-27T11:32:50.689Z,30.00
2018-11-27T11:35:19.078Z,29.27
2018-11-27T11:37:47.475Z,27.30
2018-11-27T11:40:17.563Z,31.30
2018-11-27T11:42:46.392Z,33.00
2018-11-27T11:45:14.805Z,29.13
2018-11-27T11:47:43.183Z,28.07
2018-11-27T11:50:15.739Z,28.90
2018-11-27T11:52:45.668Z,31.10
2018-11-27T11:55:14.995Z,31.93
2018-11-27T11:57:43.655Z,29.60
2018-11-27T12:00:13.247Z,30.83
2018-11-27T12:02:41.860Z,33.87
2018-11-27T12:05:11.416Z,33.47
2018-11-27T12:07:39.726Z,34.87
2018-11-27T12:10:10.840Z,36.80
2018-11-27T12:12:39.231Z,32.17
2018-11-27T12:15:11.131Z,35.07
2018-11-27T12:17:39.776Z,31.07
2018-11-27T12:20:10.556Z,33.67
2018-11-27T12:22:39.093Z,34.10
2018-11-27T12:25:10.060Z,31.10
2018-11-27T12:27:38.413Z,40.40
2018-11-27T12:30:10.490Z,35.30
2018-11-27T12:32:38.852Z,35.17
2018-11-27T12:35:08.051Z,35.33
2018-11-27T12:37:36.565Z,36.63
2018-11-27T12:40:07.906Z,36.87
2018-11-27T12:42:36.255Z,38.33
2018-11-27T12:45:04.758Z,40.40
2018-11-27T12:47:33.110Z,39.60
2018-11-27T12:50:01.417Z,37.13
2018-11-27T12:52:29.761Z,38.67
2018-11-27T12:54:58.074Z,38.87
2018-11-27T12:57:26.454Z,39.97
2018-11-27T12:59:54.798Z,40.23
2018-11-27T13:02:23.120Z,41.50
2018-11-27T13:04:51.454Z,41.17
2018-11-27T13:07:20.453Z,38.37
2018-11-27T13:09:48.725Z,40.93
2018-11-27T13:12:17.026Z,42.93
2018-11-27T13:14:45.345Z,37.60
2018-11-27T13:17:13.641Z,42.73
2018-11-27T13:19:41.954Z,40.87
2018-11-27T13:22:10.251Z,39.03
2018-11-27T13:24:38.553Z,44.23
2018-11-27T13:27:07.046Z,45.23
2018-11-27T13:29:35.320Z,46.47
2018-11-27T13:32:03.674Z,48.70
2018-11-27T13:34:32.342Z,47.70
2018-11-27T13:37:00.635Z,47.90
2018-11-27T13:39:34.120Z,48.10
2018-11-27T13:42:02.434Z,48.00
2018-11-27T13:44:30.760Z,50.07
2018-11-27T13:46:59.423Z,49.83
2018-11-27T13:49:27.856Z,51.17
2018-11-27T13:51:56.107Z,53.07
2018-11-27T13:54:24.724Z,52.57
2018-11-27T13:56:53.043Z,50.40
2018-11-27T13:59:21.420Z,52.80
2018-11-27T14:01:49.723Z,49.67
2018-11-27T14:04:18.017Z,52.67
2018-11-27T14:06:46.357Z,50.43
2018-11-27T14:09:14.669Z,50.70
2018-11-27T14:11:43.010Z,52.30
2018-11-27T14:14:11.277Z,54.30
2018-11-27T14:16:39.610Z,51.47
2018-11-27T14:19:07.992Z,51.50
2018-11-27T14:21:36.264Z,53.10
2018-11-27T14:24:04.901Z,53.73
2018-11-27T14:26:33.554Z,51.70
2018-11-27T14:29:02.030Z,52.13
2018-11-27T14:31:30.252Z,51.97
2018-11-27T14:33:58.613Z,56.23
2018-11-27T14:36:26.985Z,58.70
2018-11-27T14:38:55.313Z,56.10
2018-11-27T14:41:23.637Z,55.30
2018-11-27T14:43:52.041Z,57.70
2018-11-27T14:46:20.397Z,59.13
2018-11-27T14:48:48.840Z,54.40
2018-11-27T14:51:17.142Z,56.33
2018-11-27T14:53:45.469Z,59.13
2018-11-27T14:56:13.843Z,53.63
2018-11-27T14:58:42.217Z,54.50
2018-11-27T15:01:11.102Z,58.10
2018-11-27T15:03:39.404Z,58.03
2018-11-27T15:06:07.742Z,62.30
2018-11-27T15:08:36.102Z,61.80
2018-11-27T15:11:04.856Z,64.70
2018-11-27T15:13:33.193Z,68.20
2018-11-27T15:16:01.587Z,65.50
2018-11-27T15:18:29.986Z,65.00
2018-11-27T15:20:58.344Z,64.70
2018-11-27T15:23:26.757Z,64.03
2018-11-27T15:25:55.066Z,65.80
2018-11-27T15:28:23.442Z,65.50
2018-11-27T15:30:51.770Z,64.73
2018-11-27T15:33:20.148Z,66.60
2018-11-27T15:35:48.525Z,64.67
2018-11-27T15:38:16.856Z,67.57
2018-11-27T15:40:45.287Z,68.83
2018-11-27T15:43:13.705Z,71.53
2018-11-27T15:45:42.082Z,66.23
2018-11-27T15:48:10.356Z,71.10
2018-11-27T15:50:38.718Z,67.10
2018-11-27T15:53:07.046Z,72.07
2018-11-27T15:55:36.818Z,71.53
2018-11-27T15:58:09.452Z,71.00
2018-11-27T16:00:37.904Z,75.27
2018-11-27T16:03:06.863Z,80.17
2018-11-27T16:05:35.915Z,74.57
2018-11-27T16:08:04.317Z,79.00
2018-11-27T16:10:32.674Z,80.93
2018-11-27T16:13:01.051Z,78.57
2018-11-27T16:15:29.702Z,81.67
2018-11-27T16:17:59.672Z,77.03
2018-11-27T16:20:28.031Z,79.77
2018-11-27T16:22:56.435Z,81.07
2018-11-27T16:25:25.804Z,79.20
2018-11-27T16:27:53.839Z,80.03
2018-11-27T16:30:25.217Z,76.50
2018-11-27T16:32:53.618Z,74.00
2018-11-27T16:35:22.054Z,76.30
2018-11-27T16:37:56.744Z,79.87
2018-11-27T16:40:26.182Z,75.50
2018-11-27T16:42:54.606Z,74.00
2018-11-27T16:45:23.977Z,74.13
2018-11-27T16:47:52.598Z,79.00
2018-11-27T16:50:21.373Z,74.90
2018-11-27T16:52:49.930Z,76.17
2018-11-27T16:55:19.460Z,75.57
2018-11-27T16:57:47.872Z,74.27
2018-11-27T17:00:33.922Z,76.50
2018-11-27T17:03:04.935Z,74.23
2018-11-27T17:05:35.993Z,82.57
2018-11-27T17:08:04.419Z,76.70
2018-11-27T17:10:32.861Z,82.20
2018-11-27T17:13:01.380Z,80.47
2018-11-27T17:15:29.833Z,84.43
2018-11-27T17:17:58.396Z,85.57
2018-11-27T17:20:37.366Z,87.27
2018-11-27T17:23:09.161Z,81.27
2018-11-27T17:25:37.902Z,86.07
2018-11-27T17:28:11.417Z,85.87
2018-11-27T17:30:46.416Z,86.23
2018-11-27T17:33:18.965Z,90.97
2018-11-27T17:35:47.274Z,91.60
2018-11-27T17:38:15.604Z,88.53
2018-11-27T17:40:44.188Z,84.67
2018-11-27T17:43:12.588Z,96.87
2018-11-27T17:45:44.041Z,90.80
2018-11-27T17:48:12.436Z,92.70
2018-11-27T17:50:40.781Z,89.93
2018-11-27T17:53:09.131Z,89.07
2018-11-27T17:55:37.501Z,95.00
2018-11-27T17:58:06.236Z,84.30
2018-11-27T18:00:34.915Z,87.20
2018-11-27T18:03:05.761Z,90.57
2018-11-27T18:05:35.367Z,87.33
2018-11-27T18:08:04.064Z,89.87
2018-11-27T18:10:32.418Z,90.90
2018-11-27T18:13:00.874Z,82.30
2018-11-27T18:15:29.272Z,90.53
2018-11-27T18:17:57.641Z,92.97
2018-11-27T18:20:26.063Z,84.20
2018-11-27T18:22:54.543Z,86.17
2018-11-27T18:25:23.284Z,92.87
2018-11-27T18:27:51.806Z,88.67
2018-11-27T18:30:23.091Z,102.53
2018-11-27T18:32:51.493Z,95.50
2018-11-27T18:35:20.890Z,86.97
2018-11-27T18:37:49.825Z,100.50
2018-11-27T18:40:18.489Z,92.77
2018-11-27T18:42:47.409Z,90.43
2018-11-27T18:45:21.861Z,86.47
2018-11-27T18:47:50.371Z,85.97
2018-11-27T18:50:25.722Z,83.47
2018-11-27T18:52:54.278Z,84.07
2018-11-27T18:55:22.760Z,88.17
2018-11-27T18:57:51.399Z,93.33
2018-11-27T19:00:26.779Z,92.47
2018-11-27T19:02:55.260Z,94.73
2018-11-27T19:05:23.948Z,90.37
2018-11-27T19:07:52.448Z,94.27
2018-11-27T19:10:27.939Z,93.87
2018-11-27T19:12:56.688Z,94.60
2018-11-27T19:15:32.070Z,100.57
2018-11-27T19:18:03.280Z,108.73
2018-11-27T19:20:31.648Z,102.90
2018-11-27T19:23:00.102Z,104.53
2018-11-27T19:25:31.866Z,101.07
2018-11-27T19:28:00.214Z,99.97
2018-11-27T19:30:35.999Z,111.60
2018-11-27T19:33:04.650Z,113.10
2018-11-27T19:35:33.365Z,121.73
2018-11-27T19:38:01.714Z,111.73
2018-11-27T19:40:30.076Z,120.07
2018-11-27T19:42:58.837Z,120.07
2018-11-27T19:45:27.983Z,119.17
2018-11-27T19:47:56.974Z,127.97
2018-11-27T19:50:25.387Z,117.30
2018-11-27T19:55:46.419Z,130.67
2018-11-27T19:58:14.758Z,127.93
2018-11-27T20:00:43.099Z,121.60
2018-11-27T20:03:12.300Z,125.20
2018-11-27T20:05:41.115Z,129.63
2018-11-27T20:08:11.690Z,129.47
2018-11-27T20:10:40.082Z,132.03
2018-11-27T20:13:08.505Z,134.83
2018-11-27T20:15:36.868Z,127.63
2018-11-27T20:18:05.518Z,128.90
2018-11-27T20:20:33.974Z,121.97
2018-11-27T20:23:02.397Z,118.27
2018-11-27T20:25:30.740Z,134.80
2018-11-27T20:27:59.154Z,125.07
2018-11-27T20:30:28.513Z,115.13
2018-11-27T20:33:03.843Z,119.83
2018-11-27T20:35:32.665Z,120.27
2018-11-27T20:38:02.685Z,117.47
2018-11-27T20:40:31.018Z,113.87
2018-11-27T20:42:59.536Z,112.83
2018-11-27T20:45:28.032Z,104.63
2018-11-27T20:47:59.485Z,92.20
2018-11-27T20:50:27.869Z,95.03
2018-11-27T20:52:58.064Z,96.33
2018-11-27T20:55:27.105Z,81.87
2018-11-27T20:57:57.791Z,85.57
2018-11-27T21:00:31.934Z,71.07
2018-11-27T21:03:01.857Z,71.80
2018-11-27T21:05:30.280Z,71.27
2018-11-27T21:07:58.825Z,66.13
2018-11-27T21:10:27.179Z,56.30
2018-11-27T21:12:55.536Z,59.50
2018-11-27T21:15:24.060Z,58.93
2018-11-27T21:17:52.522Z,56.17
2018-11-27T21:20:20.948Z,51.60
2018-11-27T21:22:49.351Z,53.63
2018-11-27T21:25:18.837Z,50.13
2018-11-27T21:27:52.751Z,49.47
2018-11-27T21:30:21.154Z,51.03
2018-11-27T21:32:49.528Z,47.80
2018-11-27T21:35:18.182Z,48.23
2018-11-27T21:37:46.753Z,46.67
2018-11-27T21:40:16.638Z,47.60
2018-11-27T21:42:45.182Z,48.40
2018-11-27T21:45:16.052Z,45.23
2018-11-27T21:47:48.322Z,44.53
2018-11-27T21:50:18.306Z,43.13
2018-11-27T21:52:47.190Z,40.47
2018-11-27T21:55:15.937Z,44.07
2018-11-27T21:57:44.681Z,43.87
2018-11-27T22:00:16.076Z,41.40
2018-11-27T22:02:44.550Z,42.27
2018-11-27T22:05:13.624Z,37.10
2018-11-27T22:07:42.052Z,41.03
2018-11-27T22:10:15.306Z,39.73
2018-11-27T22:12:48.022Z,34.83
2018-11-27T22:15:47.230Z,36.93
2018-11-27T22:18:15.701Z,36.67
2018-11-27T22:20:44.075Z,37.30
2018-11-27T22:23:12.431Z,36.67
2018-11-27T22:25:40.923Z,36.00
2018-11-27T22:28:09.964Z,37.23
2018-11-27T22:30:38.738Z,36.07
2018-11-27T22:33:08.105Z,35.63
2018-11-27T22:35:36.621Z,38.40
2018-11-27T22:38:05.309Z,36.97
2018-11-27T22:40:34.047Z,33.37
2018-11-27T22:43:02.518Z,36.03
2018-11-27T22:45:40.093Z,36.77
2018-11-27T22:48:09.862Z,38.40
2018-11-27T22:50:38.164Z,32.70
2018-11-27T22:53:07.968Z,35.73
2018-11-27T22:55:36.277Z,33.77
2018-11-27T22:58:05.660Z,35.33
2018-11-27T23:00:39.255Z,32.00
2018-11-27T23:03:07.636Z,37.00
2018-11-27T23:05:36.127Z,34.03
2018-11-27T23:08:04.501Z,35.60
2018-11-27T23:10:35.662Z,36.20
2018-11-27T23:13:04.314Z,34.63
2018-11-27T23:15:32.659Z,32.03
2018-11-27T23:18:00.971Z,36.83
2018-11-27T23:20:29.991Z,34.67
2018-11-27T23:22:58.386Z,35.13
2018-11-27T23:25:26.737Z,34.17
2018-11-27T23:27:55.064Z,31.87
2018-11-27T23:30:24.370Z,35.00
2018-11-27T23:32:52.754Z,33.90
2018-11-27T23:35:21.193Z,33.17
2018-11-27T23:37:49.634Z,37.17
2018-11-27T23:40:18.935Z,37.87
2018-11-27T23:42:47.505Z,36.17
2018-11-27T23:48:08.911Z,31.63
2018-11-27T23:50:37.301Z,31.87
2018-11-27T23:53:06.112Z,32.57
2018-11-27T23:55:34.473Z,33.73
2018-11-27T23:58:02.810Z,31.90
